sensor_id;sensor_type;location;lat;lon;timestamp;P1;durP1;ratioP1;P2;durP2;ratioP2
29916;SDS011;16786;49.466;11.068;2023-02-28T00:00:00;7.38;;;5.75;;
29916;SDS011;16786;49.466;11.068;2023-02-28T00:02:36;9.02;;;5.90;;
29916;SDS011;16786;49.466;11.068;2023-02-28T00:05:08;9.57;;;6.03;;
29916;SDS011;16786;49.466;11.068;2023-02-28T00:07:37;10.90;;;6.68;;
29916;SDS011;16786;49.466;11.068;2023-02-28T00:10:05;10.00;;;6.45;;
29916;SDS011;16786;49.466;11.068;2023-02-28T00:12:35;8.45;;;5.95;;
29916;SDS011;16786;49.466;11.068;2023-02-28T00:15:09;8.82;;;6.10;;
29916;SDS011;16786;49.466;11.068;2023-02-28T00:17:37;11.00;;;5.78;;
29916;SDS011;16786;49.466;11.068;2023-02-28T00:20:06;8.27;;;5.75;;
29916;SDS011;16786;49.466;11.068;2023-02-28T00:22:41;8.63;;;6.22;;
29916;SDS011;16786;49.466;11.068;2023-02-28T00:25:11;7.97;;;6.15;;
29916;SDS011;16786;49.466;11.068;2023-02-28T00:27:40;10.18;;;6.55;;
29916;SDS011;16786;49.466;11.068;2023-02-28T00:30:10;11.52;;;7.03;;
29916;SDS011;16786;49.466;11.068;2023-02-28T00:32:40;13.70;;;7.18;;
29916;SDS011;16786;49.466;11.068;2023-02-28T00:35:08;9.90;;;6.30;;
29916;SDS011;16786;49.466;11.068;2023-02-28T00:37:36;12.05;;;6.93;;
29916;SDS011;16786;49.466;11.068;2023-02-28T00:40:05;10.98;;;6.95;;
29916;SDS011;16786;49.466;11.068;2023-02-28T00:42:34;13.27;;;6.57;;
29916;SDS011;16786;49.466;11.068;2023-02-28T00:45:02;11.05;;;6.65;;
29916;SDS011;16786;49.466;11.068;2023-02-28T00:47:37;7.95;;;6.20;;
29916;SDS011;16786;49.466;11.068;2023-02-28T00:50:05;12.55;;;6.63;;
29916;SDS011;16786;49.466;11.068;2023-02-28T00:52:35;12.23;;;6.70;;
29916;SDS011;16786;49.466;11.068;2023-02-28T00:55:02;10.40;;;7.10;;
29916;SDS011;16786;49.466;11.068;2023-02-28T00:57:31;9.77;;;6.60;;
29916;SDS011;16786;49.466;11.068;2023-02-28T00:59:58;9.68;;;6.65;;
29916;SDS011;16786;49.466;11.068;2023-02-28T01:02:26;8.63;;;6.40;;
29916;SDS011;16786;49.466;11.068;2023-02-28T01:04:53;10.75;;;6.68;;
29916;SDS011;16786;49.466;11.068;2023-02-28T01:07:21;11.50;;;6.72;;
29916;SDS011;16786;49.466;11.068;2023-02-28T01:09:48;10.43;;;6.32;;
29916;SDS011;16786;49.466;11.068;2023-02-28T01:12:16;10.60;;;6.32;;
29916;SDS011;16786;49.466;11.068;2023-02-28T01:14:46;13.30;;;7.43;;
29916;SDS011;16786;49.466;11.068;2023-02-28T01:17:13;10.73;;;6.78;;
29916;SDS011;16786;49.466;11.068;2023-02-28T01:19:40;9.73;;;6.22;;
29916;SDS011;16786;49.466;11.068;2023-02-28T01:22:09;9.52;;;6.60;;
29916;SDS011;16786;49.466;11.068;2023-02-28T01:24:36;11.00;;;6.65;;
29916;SDS011;16786;49.466;11.068;2023-02-28T01:27:04;10.82;;;6.13;;
29916;SDS011;16786;49.466;11.068;2023-02-28T01:29:31;9.93;;;6.32;;
29916;SDS011;16786;49.466;11.068;2023-02-28T01:31:58;10.93;;;6.78;;
29916;SDS011;16786;49.466;11.068;2023-02-28T01:34:26;11.32;;;6.15;;
29916;SDS011;16786;49.466;11.068;2023-02-28T01:36:53;11.35;;;6.03;;
29916;SDS011;16786;49.466;11.068;2023-02-28T01:39:20;8.07;;;6.63;;
29916;SDS011;16786;49.466;11.068;2023-02-28T01:41:49;9.00;;;6.45;;
29916;SDS011;16786;49.466;11.068;2023-02-28T01:47:22;10.70;;;6.85;;
29916;SDS011;16786;49.466;11.068;2023-02-28T01:49:51;10.40;;;6.40;;
29916;SDS011;16786;49.466;11.068;2023-02-28T01:52:18;10.07;;;6.07;;
29916;SDS011;16786;49.466;11.068;2023-02-28T01:54:49;10.60;;;6.25;;
29916;SDS011;16786;49.466;11.068;2023-02-28T01:57:21;12.05;;;6.50;;
29916;SDS011;16786;49.466;11.068;2023-02-28T01:59:56;10.77;;;6.43;;
29916;SDS011;16786;49.466;11.068;2023-02-28T02:02:27;10.98;;;6.82;;
29916;SDS011;16786;49.466;11.068;2023-02-28T02:05:06;10.45;;;6.68;;
29916;SDS011;16786;49.466;11.068;2023-02-28T02:07:37;9.20;;;6.32;;
29916;SDS011;16786;49.466;11.068;2023-02-28T02:18:18;9.48;;;6.63;;
29916;SDS011;16786;49.466;11.068;2023-02-28T02:26:58;12.20;;;6.95;;
29916;SDS011;16786;49.466;11.068;2023-02-28T02:29:40;9.73;;;6.78;;
29916;SDS011;16786;49.466;11.068;2023-02-28T02:35:54;10.93;;;6.50;;
29916;SDS011;16786;49.466;11.068;2023-02-28T02:43:40;10.63;;;6.50;;
29916;SDS011;16786;49.466;11.068;2023-02-28T02:46:20;8.30;;;6.20;;
29916;SDS011;16786;49.466;11.068;2023-02-28T02:49:09;9.25;;;6.85;;
29916;SDS011;16786;49.466;11.068;2023-02-28T02:51:43;13.15;;;7.32;;
29916;SDS011;16786;49.466;11.068;2023-02-28T02:54:17;12.73;;;7.18;;
29916;SDS011;16786;49.466;11.068;2023-02-28T02:56:49;14.43;;;7.68;;
29916;SDS011;16786;49.466;11.068;2023-02-28T02:59:19;10.90;;;7.10;;
29916;SDS011;16786;49.466;11.068;2023-02-28T03:01:51;14.73;;;7.93;;
29916;SDS011;16786;49.466;11.068;2023-02-28T03:04:23;11.30;;;6.78;;
29916;SDS011;16786;49.466;11.068;2023-02-28T03:06:53;12.88;;;7.35;;
29916;SDS011;16786;49.466;11.068;2023-02-28T03:09:22;12.48;;;7.82;;
29916;SDS011;16786;49.466;11.068;2023-02-28T03:11:50;9.98;;;7.35;;
29916;SDS011;16786;49.466;11.068;2023-02-28T03:26:02;12.68;;;7.90;;
29916;SDS011;16786;49.466;11.068;2023-02-28T03:31:22;13.10;;;7.40;;
29916;SDS011;16786;49.466;11.068;2023-02-28T03:36:32;13.63;;;8.10;;
29916;SDS011;16786;49.466;11.068;2023-02-28T03:39:20;16.27;;;8.35;;
29916;SDS011;16786;49.466;11.068;2023-02-28T03:41:57;14.10;;;8.40;;
29916;SDS011;16786;49.466;11.068;2023-02-28T03:47:12;16.75;;;8.73;;
29916;SDS011;16786;49.466;11.068;2023-02-28T03:52:35;13.30;;;8.32;;
29916;SDS011;16786;49.466;11.068;2023-02-28T03:55:09;13.38;;;8.40;;
29916;SDS011;16786;49.466;11.068;2023-02-28T04:00:34;12.98;;;8.27;;
29916;SDS011;16786;49.466;11.068;2023-02-28T04:03:05;15.05;;;9.02;;
29916;SDS011;16786;49.466;11.068;2023-02-28T04:05:32;16.30;;;8.85;;
29916;SDS011;16786;49.466;11.068;2023-02-28T04:08:11;14.65;;;8.55;;
29916;SDS011;16786;49.466;11.068;2023-02-28T04:10:38;14.32;;;8.48;;
29916;SDS011;16786;49.466;11.068;2023-02-28T04:13:06;14.90;;;9.07;;
29916;SDS011;16786;49.466;11.068;2023-02-28T04:15:33;10.35;;;7.80;;
29916;SDS011;16786;49.466;11.068;2023-02-28T04:18:00;12.40;;;8.32;;
29916;SDS011;16786;49.466;11.068;2023-02-28T04:20:27;12.55;;;8.98;;
29916;SDS011;16786;49.466;11.068;2023-02-28T04:22:55;13.88;;;8.60;;
29916;SDS011;16786;49.466;11.068;2023-02-28T04:25:22;13.40;;;9.48;;
29916;SDS011;16786;49.466;11.068;2023-02-28T04:27:49;14.18;;;9.07;;
29916;SDS011;16786;49.466;11.068;2023-02-28T04:30:16;15.23;;;9.77;;
29916;SDS011;16786;49.466;11.068;2023-02-28T04:32:44;14.57;;;9.88;;
29916;SDS011;16786;49.466;11.068;2023-02-28T04:35:11;17.58;;;10.23;;
29916;SDS011;16786;49.466;11.068;2023-02-28T04:37:38;18.25;;;11.48;;
29916;SDS011;16786;49.466;11.068;2023-02-28T04:40:06;21.35;;;11.60;;
29916;SDS011;16786;49.466;11.068;2023-02-28T04:42:33;20.15;;;11.70;;
29916;SDS011;16786;49.466;11.068;2023-02-28T04:45:03;19.55;;;11.10;;
29916;SDS011;16786;49.466;11.068;2023-02-28T04:47:30;18.00;;;9.90;;
29916;SDS011;16786;49.466;11.068;2023-02-28T04:49:58;18.33;;;10.45;;
29916;SDS011;16786;49.466;11.068;2023-02-28T04:52:26;20.05;;;10.98;;
29916;SDS011;16786;49.466;11.068;2023-02-28T04:54:54;16.10;;;9.35;;
29916;SDS011;16786;49.466;11.068;2023-02-28T04:57:21;14.57;;;9.55;;
29916;SDS011;16786;49.466;11.068;2023-02-28T04:59:48;14.40;;;9.38;;
29916;SDS011;16786;49.466;11.068;2023-02-28T05:02:16;16.58;;;9.90;;
29916;SDS011;16786;49.466;11.068;2023-02-28T05:04:44;14.05;;;9.02;;
29916;SDS011;16786;49.466;11.068;2023-02-28T05:07:11;14.15;;;8.73;;
29916;SDS011;16786;49.466;11.068;2023-02-28T05:09:38;14.88;;;8.98;;
29916;SDS011;16786;49.466;11.068;2023-02-28T05:12:05;15.35;;;9.40;;
29916;SDS011;16786;49.466;11.068;2023-02-28T05:14:33;13.85;;;9.13;;
29916;SDS011;16786;49.466;11.068;2023-02-28T05:17:00;16.85;;;8.98;;
29916;SDS011;16786;49.466;11.068;2023-02-28T05:19:27;14.60;;;8.82;;
29916;SDS011;16786;49.466;11.068;2023-02-28T05:21:55;12.57;;;8.65;;
29916;SDS011;16786;49.466;11.068;2023-02-28T05:24:22;14.95;;;9.18;;
29916;SDS011;16786;49.466;11.068;2023-02-28T05:26:51;12.10;;;8.73;;
29916;SDS011;16786;49.466;11.068;2023-02-28T05:29:20;11.77;;;8.10;;
29916;SDS011;16786;49.466;11.068;2023-02-28T05:31:47;14.15;;;9.02;;
29916;SDS011;16786;49.466;11.068;2023-02-28T05:34:15;13.30;;;9.27;;
29916;SDS011;16786;49.466;11.068;2023-02-28T05:36:42;14.43;;;8.65;;
29916;SDS011;16786;49.466;11.068;2023-02-28T05:39:11;16.77;;;9.10;;
29916;SDS011;16786;49.466;11.068;2023-02-28T05:41:40;16.88;;;9.75;;
29916;SDS011;16786;49.466;11.068;2023-02-28T05:44:09;16.80;;;9.32;;
29916;SDS011;16786;49.466;11.068;2023-02-28T05:46:36;14.25;;;9.57;;
29916;SDS011;16786;49.466;11.068;2023-02-28T05:49:05;16.20;;;9.70;;
29916;SDS011;16786;49.466;11.068;2023-02-28T05:51:32;18.83;;;10.63;;
29916;SDS011;16786;49.466;11.068;2023-02-28T05:54:02;17.17;;;10.30;;
29916;SDS011;16786;49.466;11.068;2023-02-28T05:56:30;19.45;;;10.98;;
29916;SDS011;16786;49.466;11.068;2023-02-28T05:58:57;97.65;;;19.58;;
29916;SDS011;16786;49.466;11.068;2023-02-28T06:01:40;45.75;;;15.15;;
29916;SDS011;16786;49.466;11.068;2023-02-28T06:04:17;23.90;;;11.27;;
29916;SDS011;16786;49.466;11.068;2023-02-28T06:06:57;21.55;;;11.65;;
29916;SDS011;16786;49.466;11.068;2023-02-28T06:09:25;20.85;;;11.15;;
29916;SDS011;16786;49.466;11.068;2023-02-28T06:11:52;16.85;;;10.20;;
29916;SDS011;16786;49.466;11.068;2023-02-28T06:14:20;16.88;;;9.57;;
29916;SDS011;16786;49.466;11.068;2023-02-28T06:16:48;21.63;;;10.50;;
29916;SDS011;16786;49.466;11.068;2023-02-28T06:19:15;15.73;;;9.98;;
29916;SDS011;16786;49.466;11.068;2023-02-28T06:21:43;19.30;;;10.43;;
29916;SDS011;16786;49.466;11.068;2023-02-28T06:24:10;19.05;;;11.15;;
29916;SDS011;16786;49.466;11.068;2023-02-28T06:26:37;20.80;;;11.18;;
29916;SDS011;16786;49.466;11.068;2023-02-28T06:29:05;20.00;;;10.38;;
29916;SDS011;16786;49.466;11.068;2023-02-28T06:31:32;14.95;;;9.88;;
29916;SDS011;16786;49.466;11.068;2023-02-28T06:34:00;18.98;;;10.57;;
29916;SDS011;16786;49.466;11.068;2023-02-28T06:36:27;19.15;;;11.27;;
29916;SDS011;16786;49.466;11.068;2023-02-28T06:38:54;19.33;;;10.52;;
29916;SDS011;16786;49.466;11.068;2023-02-28T06:41:24;17.70;;;9.90;;
29916;SDS011;16786;49.466;11.068;2023-02-28T06:43:52;18.80;;;10.38;;
29916;SDS011;16786;49.466;11.068;2023-02-28T06:46:20;19.13;;;10.30;;
29916;SDS011;16786;49.466;11.068;2023-02-28T06:48:48;14.82;;;9.15;;
29916;SDS011;16786;49.466;11.068;2023-02-28T06:51:17;20.55;;;10.50;;
29916;SDS011;16786;49.466;11.068;2023-02-28T06:53:46;59.05;;;13.48;;
29916;SDS011;16786;49.466;11.068;2023-02-28T06:56:15;21.98;;;11.07;;
29916;SDS011;16786;49.466;11.068;2023-02-28T06:58:49;21.13;;;10.23;;
29916;SDS011;16786;49.466;11.068;2023-02-28T07:01:19;17.48;;;9.82;;
29916;SDS011;16786;49.466;11.068;2023-02-28T07:03:46;17.00;;;9.20;;
29916;SDS011;16786;49.466;11.068;2023-02-28T07:06:19;19.77;;;9.82;;
29916;SDS011;16786;49.466;11.068;2023-02-28T07:08:51;17.30;;;10.75;;
29916;SDS011;16786;49.466;11.068;2023-02-28T07:11:20;17.33;;;9.27;;
29916;SDS011;16786;49.466;11.068;2023-02-28T07:13:49;15.10;;;9.15;;
29916;SDS011;16786;49.466;11.068;2023-02-28T07:16:17;18.52;;;10.18;;
29916;SDS011;16786;49.466;11.068;2023-02-28T07:18:45;24.02;;;11.52;;
29916;SDS011;16786;49.466;11.068;2023-02-28T07:21:12;20.73;;;10.15;;
29916;SDS011;16786;49.466;11.068;2023-02-28T07:23:40;15.55;;;10.50;;
29916;SDS011;16786;49.466;11.068;2023-02-28T07:26:12;15.00;;;9.65;;
29916;SDS011;16786;49.466;11.068;2023-02-28T07:28:42;20.25;;;10.80;;
29916;SDS011;16786;49.466;11.068;2023-02-28T07:31:10;19.42;;;10.25;;
29916;SDS011;16786;49.466;11.068;2023-02-28T07:33:38;18.83;;;9.30;;
29916;SDS011;16786;49.466;11.068;2023-02-28T07:36:10;19.10;;;10.50;;
29916;SDS011;16786;49.466;11.068;2023-02-28T07:38:42;14.45;;;9.93;;
29916;SDS011;16786;49.466;11.068;2023-02-28T07:43:42;16.48;;;10.30;;
29916;SDS011;16786;49.466;11.068;2023-02-28T07:46:12;18.58;;;10.73;;
29916;SDS011;16786;49.466;11.068;2023-02-28T07:48:41;20.80;;;10.55;;
29916;SDS011;16786;49.466;11.068;2023-02-28T07:51:10;15.45;;;10.43;;
29916;SDS011;16786;49.466;11.068;2023-02-28T07:53:37;17.95;;;10.65;;
29916;SDS011;16786;49.466;11.068;2023-02-28T07:56:05;19.23;;;11.32;;
29916;SDS011;16786;49.466;11.068;2023-02-28T07:58:32;17.85;;;9.95;;
29916;SDS011;16786;49.466;11.068;2023-02-28T08:01:07;16.83;;;10.43;;
29916;SDS011;16786;49.466;11.068;2023-02-28T08:03:35;17.98;;;10.93;;
29916;SDS011;16786;49.466;11.068;2023-02-28T08:06:03;16.85;;;10.38;;
29916;SDS011;16786;49.466;11.068;2023-02-28T08:08:32;19.33;;;9.80;;
29916;SDS011;16786;49.466;11.068;2023-02-28T08:11:00;15.88;;;10.07;;
29916;SDS011;16786;49.466;11.068;2023-02-28T08:13:28;16.73;;;11.15;;
29916;SDS011;16786;49.466;11.068;2023-02-28T08:15:56;20.98;;;11.18;;
29916;SDS011;16786;49.466;11.068;2023-02-28T08:18:24;16.98;;;10.57;;
29916;SDS011;16786;49.466;11.068;2023-02-28T08:20:51;16.83;;;11.18;;
29916;SDS011;16786;49.466;11.068;2023-02-28T08:23:18;14.82;;;10.88;;
29916;SDS011;16786;49.466;11.068;2023-02-28T08:25:52;17.55;;;10.77;;
29916;SDS011;16786;49.466;11.068;2023-02-28T08:28:21;17.02;;;10.23;;
29916;SDS011;16786;49.466;11.068;2023-02-28T08:30:52;17.00;;;10.70;;
29916;SDS011;16786;49.466;11.068;2023-02-28T08:33:21;15.30;;;10.35;;
29916;SDS011;16786;49.466;11.068;2023-02-28T08:35:51;15.70;;;10.50;;
29916;SDS011;16786;49.466;11.068;2023-02-28T08:38:23;15.95;;;11.07;;
29916;SDS011;16786;49.466;11.068;2023-02-28T08:40:56;13.82;;;10.70;;
29916;SDS011;16786;49.466;11.068;2023-02-28T08:43:25;16.73;;;10.80;;
29916;SDS011;16786;49.466;11.068;2023-02-28T08:45:53;19.38;;;11.27;;
29916;SDS011;16786;49.466;11.068;2023-02-28T08:48:24;19.38;;;11.27;;
29916;SDS011;16786;49.466;11.068;2023-02-28T08:50:58;18.60;;;10.95;;
29916;SDS011;16786;49.466;11.068;2023-02-28T08:53:36;18.48;;;11.43;;
29916;SDS011;16786;49.466;11.068;2023-02-28T08:56:11;23.25;;;13.23;;
29916;SDS011;16786;49.466;11.068;2023-02-28T08:58:40;20.35;;;10.80;;
29916;SDS011;16786;49.466;11.068;2023-02-28T09:01:28;14.25;;;10.32;;
29916;SDS011;16786;49.466;11.068;2023-02-28T09:03:56;18.25;;;11.13;;
29916;SDS011;16786;49.466;11.068;2023-02-28T09:06:25;17.00;;;11.18;;
29916;SDS011;16786;49.466;11.068;2023-02-28T09:08:57;16.70;;;10.95;;
29916;SDS011;16786;49.466;11.068;2023-02-28T09:11:25;14.13;;;10.20;;
29916;SDS011;16786;49.466;11.068;2023-02-28T09:13:53;15.57;;;11.13;;
29916;SDS011;16786;49.466;11.068;2023-02-28T09:16:22;18.10;;;11.48;;
29916;SDS011;16786;49.466;11.068;2023-02-28T09:18:49;15.68;;;11.40;;
29916;SDS011;16786;49.466;11.068;2023-02-28T09:21:17;14.73;;;10.80;;
29916;SDS011;16786;49.466;11.068;2023-02-28T09:23:46;17.75;;;11.45;;
29916;SDS011;16786;49.466;11.068;2023-02-28T09:26:23;16.55;;;11.35;;
29916;SDS011;16786;49.466;11.068;2023-02-28T09:28:52;15.27;;;10.70;;
29916;SDS011;16786;49.466;11.068;2023-02-28T09:31:21;16.75;;;11.70;;
29916;SDS011;16786;49.466;11.068;2023-02-28T09:33:51;16.92;;;11.20;;
29916;SDS011;16786;49.466;11.068;2023-02-28T09:36:19;16.90;;;12.18;;
29916;SDS011;16786;49.466;11.068;2023-02-28T09:38:50;17.10;;;10.98;;
29916;SDS011;16786;49.466;11.068;2023-02-28T09:41:21;15.65;;;11.05;;
29916;SDS011;16786;49.466;11.068;2023-02-28T09:43:53;14.77;;;10.30;;
29916;SDS011;16786;49.466;11.068;2023-02-28T09:46:31;18.05;;;11.85;;
29916;SDS011;16786;49.466;11.068;2023-02-28T09:49:17;17.75;;;11.85;;
29916;SDS011;16786;49.466;11.068;2023-02-28T09:51:56;18.23;;;11.45;;
29916;SDS011;16786;49.466;11.068;2023-02-28T09:54:36;14.40;;;10.40;;
29916;SDS011;16786;49.466;11.068;2023-02-28T10:05:56;14.35;;;10.43;;
29916;SDS011;16786;49.466;11.068;2023-02-28T10:11:00;14.90;;;9.85;;
29916;SDS011;16786;49.466;11.068;2023-02-28T10:16:43;15.57;;;10.88;;
29916;SDS011;16786;49.466;11.068;2023-02-28T10:19:22;16.70;;;11.15;;
29916;SDS011;16786;49.466;11.068;2023-02-28T10:22:14;18.95;;;10.73;;
29916;SDS011;16786;49.466;11.068;2023-02-28T10:24:46;18.10;;;11.93;;
29916;SDS011;16786;49.466;11.068;2023-02-28T10:27:19;14.35;;;10.88;;
29916;SDS011;16786;49.466;11.068;2023-02-28T10:29:55;22.95;;;11.75;;
29916;SDS011;16786;49.466;11.068;2023-02-28T10:32:31;13.02;;;10.18;;
29916;SDS011;16786;49.466;11.068;2023-02-28T10:37:53;15.18;;;10.18;;
29916;SDS011;16786;49.466;11.068;2023-02-28T10:43:03;12.80;;;9.93;;
29916;SDS011;16786;49.466;11.068;2023-02-28T10:45:33;15.27;;;10.48;;
29916;SDS011;16786;49.466;11.068;2023-02-28T10:50:42;16.08;;;11.82;;
29916;SDS011;16786;49.466;11.068;2023-02-28T10:55:42;19.63;;;12.52;;
29916;SDS011;16786;49.466;11.068;2023-02-28T10:58:23;16.95;;;11.63;;
29916;SDS011;16786;49.466;11.068;2023-02-28T11:00:51;16.90;;;10.98;;
29916;SDS011;16786;49.466;11.068;2023-02-28T11:03:23;14.50;;;10.48;;
29916;SDS011;16786;49.466;11.068;2023-02-28T11:05:58;13.25;;;10.50;;
29916;SDS011;16786;49.466;11.068;2023-02-28T11:08:30;12.65;;;10.20;;
29916;SDS011;16786;49.466;11.068;2023-02-28T11:10:59;17.02;;;11.77;;
29916;SDS011;16786;49.466;11.068;2023-02-28T11:13:34;15.32;;;11.07;;
29916;SDS011;16786;49.466;11.068;2023-02-28T11:16:06;14.27;;;10.73;;
29916;SDS011;16786;49.466;11.068;2023-02-28T11:18:54;14.30;;;10.85;;
29916;SDS011;16786;49.466;11.068;2023-02-28T11:21:31;14.85;;;10.38;;
29916;SDS011;16786;49.466;11.068;2023-02-28T11:26:46;14.20;;;10.75;;
29916;SDS011;16786;49.466;11.068;2023-02-28T11:34:34;15.25;;;11.13;;
29916;SDS011;16786;49.466;11.068;2023-02-28T11:37:05;14.07;;;10.60;;
29916;SDS011;16786;49.466;11.068;2023-02-28T11:39:38;13.88;;;9.93;;
29916;SDS011;16786;49.466;11.068;2023-02-28T11:45:04;14.82;;;11.00;;
29916;SDS011;16786;49.466;11.068;2023-02-28T11:51:18;14.43;;;11.02;;
29916;SDS011;16786;49.466;11.068;2023-02-28T11:53:52;14.45;;;10.52;;
29916;SDS011;16786;49.466;11.068;2023-02-28T11:56:29;12.30;;;10.73;;
29916;SDS011;16786;49.466;11.068;2023-02-28T12:07:47;14.55;;;10.43;;
29916;SDS011;16786;49.466;11.068;2023-02-28T12:10:33;14.10;;;10.50;;
29916;SDS011;16786;49.466;11.068;2023-02-28T12:19:13;14.02;;;10.20;;
29916;SDS011;16786;49.466;11.068;2023-02-28T12:22:05;16.80;;;10.15;;
29916;SDS011;16786;49.466;11.068;2023-02-28T12:27:39;13.70;;;10.20;;
29916;SDS011;16786;49.466;11.068;2023-02-28T12:30:21;13.93;;;10.10;;
29916;SDS011;16786;49.466;11.068;2023-02-28T12:33:08;13.93;;;10.82;;
29916;SDS011;16786;49.466;11.068;2023-02-28T12:35:44;13.27;;;10.40;;
29916;SDS011;16786;49.466;11.068;2023-02-28T12:38:26;14.95;;;11.20;;
29916;SDS011;16786;49.466;11.068;2023-02-28T12:41:12;14.68;;;11.05;;
29916;SDS011;16786;49.466;11.068;2023-02-28T12:43:48;12.82;;;10.43;;
29916;SDS011;16786;49.466;11.068;2023-02-28T12:46:30;12.70;;;10.63;;
29916;SDS011;16786;49.466;11.068;2023-02-28T12:49:04;14.75;;;10.88;;
29916;SDS011;16786;49.466;11.068;2023-02-28T12:51:35;16.27;;;11.65;;
29916;SDS011;16786;49.466;11.068;2023-02-28T12:54:14;12.50;;;10.68;;
29916;SDS011;16786;49.466;11.068;2023-02-28T13:10:44;13.57;;;10.60;;
29916;SDS011;16786;49.466;11.068;2023-02-28T13:13:18;13.60;;;10.85;;
29916;SDS011;16786;49.466;11.068;2023-02-28T13:15:57;13.55;;;10.63;;
29916;SDS011;16786;49.466;11.068;2023-02-28T13:19:06;12.18;;;10.57;;
29916;SDS011;16786;49.466;11.068;2023-02-28T13:21:23;15.32;;;10.25;;
29916;SDS011;16786;49.466;11.068;2023-02-28T13:23:58;12.43;;;10.35;;
29916;SDS011;16786;49.466;11.068;2023-02-28T13:31:31;12.68;;;10.82;;
29916;SDS011;16786;49.466;11.068;2023-02-28T13:36:32;12.57;;;11.27;;
29916;SDS011;16786;49.466;11.068;2023-02-28T13:39:01;13.00;;;10.30;;
29916;SDS011;16786;49.466;11.068;2023-02-28T13:49:25;13.38;;;11.98;;
29916;SDS011;16786;49.466;11.068;2023-02-28T13:54:54;13.30;;;11.90;;
29916;SDS011;16786;49.466;11.068;2023-02-28T14:00:32;12.10;;;10.90;;
29916;SDS011;16786;49.466;11.068;2023-02-28T14:03:44;12.65;;;11.35;;
29916;SDS011;16786;49.466;11.068;2023-02-28T14:06:28;13.07;;;11.23;;
29916;SDS011;16786;49.466;11.068;2023-02-28T14:11:35;12.27;;;10.60;;
29916;SDS011;16786;49.466;11.068;2023-02-28T14:14:07;11.65;;;10.25;;
29916;SDS011;16786;49.466;11.068;2023-02-28T14:16:45;12.38;;;11.10;;
29916;SDS011;16786;49.466;11.068;2023-02-28T14:19:15;11.45;;;10.35;;
29916;SDS011;16786;49.466;11.068;2023-02-28T14:32:41;11.73;;;10.52;;
29916;SDS011;16786;49.466;11.068;2023-02-28T14:37:59;12.55;;;11.35;;
29916;SDS011;16786;49.466;11.068;2023-02-28T14:40:33;12.57;;;11.32;;
29916;SDS011;16786;49.466;11.068;2023-02-28T14:43:03;13.20;;;11.60;;
29916;SDS011;16786;49.466;11.068;2023-02-28T14:45:32;13.30;;;11.57;;
29916;SDS011;16786;49.466;11.068;2023-02-28T14:48:02;13.57;;;11.67;;
29916;SDS011;16786;49.466;11.068;2023-02-28T14:50:36;14.63;;;12.07;;
29916;SDS011;16786;49.466;11.068;2023-02-28T14:53:04;13.95;;;11.95;;
29916;SDS011;16786;49.466;11.068;2023-02-28T14:55:44;12.65;;;11.30;;
29916;SDS011;16786;49.466;11.068;2023-02-28T14:58:19;11.52;;;10.43;;
29916;SDS011;16786;49.466;11.068;2023-02-28T15:00:51;13.27;;;11.50;;
29916;SDS011;16786;49.466;11.068;2023-02-28T15:03:34;12.50;;;11.20;;
29916;SDS011;16786;49.466;11.068;2023-02-28T15:06:05;12.25;;;11.05;;
29916;SDS011;16786;49.466;11.068;2023-02-28T15:08:39;12.13;;;10.80;;
29916;SDS011;16786;49.466;11.068;2023-02-28T15:11:16;12.95;;;10.80;;
29916;SDS011;16786;49.466;11.068;2023-02-28T15:13:46;10.70;;;9.60;;
29916;SDS011;16786;49.466;11.068;2023-02-28T15:16:22;11.70;;;10.60;;
29916;SDS011;16786;49.466;11.068;2023-02-28T15:18:54;12.10;;;10.90;;
29916;SDS011;16786;49.466;11.068;2023-02-28T15:23:59;13.40;;;12.00;;
29916;SDS011;16786;49.466;11.068;2023-02-28T15:26:40;12.35;;;10.95;;
29916;SDS011;16786;49.466;11.068;2023-02-28T15:29:14;12.50;;;11.25;;
29916;SDS011;16786;49.466;11.068;2023-02-28T15:31:48;13.10;;;11.38;;
29916;SDS011;16786;49.466;11.068;2023-02-28T15:37:30;12.65;;;11.35;;
29916;SDS011;16786;49.466;11.068;2023-02-28T15:43:06;15.10;;;13.10;;
29916;SDS011;16786;49.466;11.068;2023-02-28T15:45:45;12.98;;;11.45;;
29916;SDS011;16786;49.466;11.068;2023-02-28T15:48:14;13.95;;;12.45;;
29916;SDS011;16786;49.466;11.068;2023-02-28T15:50:51;14.73;;;11.82;;
29916;SDS011;16786;49.466;11.068;2023-02-28T15:53:22;14.25;;;12.73;;
29916;SDS011;16786;49.466;11.068;2023-02-28T15:56:03;13.30;;;11.90;;
29916;SDS011;16786;49.466;11.068;2023-02-28T15:58:34;13.93;;;12.55;;
29916;SDS011;16786;49.466;11.068;2023-02-28T16:01:04;16.90;;;13.35;;
29916;SDS011;16786;49.466;11.068;2023-02-28T16:03:38;13.90;;;12.55;;
29916;SDS011;16786;49.466;11.068;2023-02-28T16:09:04;14.82;;;12.40;;
29916;SDS011;16786;49.466;11.068;2023-02-28T16:11:35;14.55;;;12.20;;
29916;SDS011;16786;49.466;11.068;2023-02-28T16:14:15;15.75;;;12.43;;
29916;SDS011;16786;49.466;11.068;2023-02-28T16:16:50;14.43;;;12.90;;
29916;SDS011;16786;49.466;11.068;2023-02-28T16:19:20;14.27;;;12.73;;
29916;SDS011;16786;49.466;11.068;2023-02-28T16:21:49;16.63;;;13.90;;
29916;SDS011;16786;49.466;11.068;2023-02-28T16:24:16;15.77;;;13.18;;
29916;SDS011;16786;49.466;11.068;2023-02-28T16:26:46;17.70;;;13.02;;
29916;SDS011;16786;49.466;11.068;2023-02-28T16:29:17;18.42;;;13.48;;
29916;SDS011;16786;49.466;11.068;2023-02-28T16:32:04;17.55;;;13.55;;
29916;SDS011;16786;49.466;11.068;2023-02-28T16:34:32;20.52;;;14.95;;
29916;SDS011;16786;49.466;11.068;2023-02-28T16:37:00;23.50;;;16.85;;
29916;SDS011;16786;49.466;11.068;2023-02-28T16:39:27;17.42;;;13.25;;
29916;SDS011;16786;49.466;11.068;2023-02-28T16:41:55;16.15;;;13.55;;
29916;SDS011;16786;49.466;11.068;2023-02-28T16:46:57;16.65;;;13.43;;
29916;SDS011;16786;49.466;11.068;2023-02-28T16:49:26;18.35;;;13.93;;
29916;SDS011;16786;49.466;11.068;2023-02-28T16:51:54;19.38;;;13.60;;
29916;SDS011;16786;49.466;11.068;2023-02-28T16:54:21;17.67;;;14.25;;
29916;SDS011;16786;49.466;11.068;2023-02-28T16:56:48;20.40;;;13.80;;
29916;SDS011;16786;49.466;11.068;2023-02-28T16:59:18;21.45;;;14.40;;
29916;SDS011;16786;49.466;11.068;2023-02-28T17:01:49;19.00;;;13.88;;
29916;SDS011;16786;49.466;11.068;2023-02-28T17:04:17;20.98;;;14.07;;
29916;SDS011;16786;49.466;11.068;2023-02-28T17:06:44;17.58;;;14.10;;
29916;SDS011;16786;49.466;11.068;2023-02-28T17:09:17;20.80;;;15.15;;
29916;SDS011;16786;49.466;11.068;2023-02-28T17:11:47;22.55;;;14.32;;
29916;SDS011;16786;49.466;11.068;2023-02-28T17:14:15;19.50;;;14.07;;
29916;SDS011;16786;49.466;11.068;2023-02-28T17:16:43;19.10;;;13.68;;
29916;SDS011;16786;49.466;11.068;2023-02-28T17:19:14;24.35;;;15.40;;
29916;SDS011;16786;49.466;11.068;2023-02-28T17:21:43;19.20;;;14.52;;
29916;SDS011;16786;49.466;11.068;2023-02-28T17:24:11;19.08;;;14.18;;
29916;SDS011;16786;49.466;11.068;2023-02-28T17:26:55;23.65;;;15.05;;
29916;SDS011;16786;49.466;11.068;2023-02-28T17:29:23;21.80;;;14.82;;
29916;SDS011;16786;49.466;11.068;2023-02-28T17:31:51;22.25;;;14.68;;
29916;SDS011;16786;49.466;11.068;2023-02-28T17:34:19;22.40;;;14.93;;